createdAt,value
2018-07-01T00:00:52.374Z,13.50
2018-07-01T00:03:56.849Z,13.50
2018-07-01T00:07:01.285Z,13.60
2018-07-01T00:10:07.433Z,13.60
2018-07-01T00:13:11.861Z,13.60
2018-07-01T00:16:16.331Z,13.60
2018-07-01T00:19:20.789Z,13.50
2018-07-01T00:22:25.261Z,13.40
2018-07-01T00:25:29.713Z,13.40
2018-07-01T00:28:34.429Z,13.30
2018-07-01T00:31:38.872Z,13.10
2018-07-01T00:37:47.473Z,12.80
2018-07-01T00:40:52.073Z,12.70
2018-07-01T00:43:56.499Z,12.70
2018-07-01T00:47:00.985Z,12.60
2018-07-01T00:50:06.951Z,12.60
2018-07-01T00:53:11.694Z,12.50
2018-07-01T00:56:16.306Z,12.50
2018-07-01T00:59:21.219Z,12.40
2018-07-01T01:02:25.985Z,12.30
2018-07-01T01:05:30.693Z,12.30
2018-07-01T01:08:35.288Z,12.30
2018-07-01T01:11:40.287Z,12.20
2018-07-01T01:14:45.799Z,12.20
2018-07-01T01:17:50.855Z,12.10
2018-07-01T01:20:55.444Z,12.00
2018-07-01T01:24:00.177Z,12.00
2018-07-01T01:27:04.910Z,12.00
2018-07-01T01:30:09.502Z,12.00
2018-07-01T01:33:14.066Z,11.90
2018-07-01T01:36:18.859Z,11.90
2018-07-01T01:39:29.642Z,11.90
2018-07-01T01:43:44.393Z,11.90
2018-07-01T01:46:53.327Z,11.90
2018-07-01T01:50:02.241Z,11.90
2018-07-01T01:53:13.224Z,11.80
2018-07-01T01:56:24.982Z,11.80
2018-07-01T02:02:53.040Z,11.80
2018-07-01T02:06:01.553Z,11.70
2018-07-01T02:09:13.027Z,11.70
2018-07-01T02:12:18.104Z,11.70
2018-07-01T02:15:26.242Z,11.70
2018-07-01T02:18:31.081Z,11.60
2018-07-01T02:21:36.133Z,11.60
2018-07-01T02:24:43.696Z,11.50
2018-07-01T02:27:48.677Z,11.50
2018-07-01T02:30:53.439Z,11.50
2018-07-01T02:33:58.269Z,11.50
2018-07-01T02:37:03.055Z,11.40
2018-07-01T02:40:08.555Z,11.40
2018-07-01T02:43:13.482Z,11.40
2018-07-01T02:46:18.114Z,11.40
2018-07-01T02:49:22.777Z,11.30
2018-07-01T02:52:27.490Z,11.30
2018-07-01T02:55:32.179Z,11.30
2018-07-01T02:58:36.799Z,11.20
2018-07-01T03:01:41.418Z,11.20
2018-07-01T03:04:46.194Z,11.20
2018-07-01T03:07:50.927Z,11.20
2018-07-01T03:10:55.755Z,11.20
2018-07-01T03:14:00.681Z,11.20
2018-07-01T03:17:05.609Z,11.20
2018-07-01T03:20:10.694Z,11.20
2018-07-01T03:23:16.384Z,11.20
2018-07-01T03:26:21.067Z,11.20
2018-07-01T03:29:26.120Z,11.20
2018-07-01T03:32:30.850Z,11.30
2018-07-01T03:35:35.630Z,11.30
2018-07-01T03:38:40.271Z,11.20
2018-07-01T03:41:45.028Z,11.30
2018-07-01T03:44:50.050Z,11.30
2018-07-01T03:47:54.713Z,11.40
2018-07-01T03:50:59.447Z,11.40
2018-07-01T03:54:04.274Z,11.40
2018-07-01T03:57:09.014Z,11.50
2018-07-01T04:00:13.579Z,11.60
2018-07-01T04:03:18.187Z,11.60
2018-07-01T04:06:22.941Z,11.70
2018-07-01T04:09:31.732Z,11.70
2018-07-01T04:12:36.498Z,11.80
2018-07-01T04:15:41.114Z,11.80
2018-07-01T04:18:46.302Z,11.90
2018-07-01T04:21:51.020Z,11.90
2018-07-01T04:24:55.721Z,12.00
2018-07-01T04:31:04.926Z,12.20
2018-07-01T04:34:09.490Z,12.40
2018-07-01T04:37:14.208Z,12.50
2018-07-01T04:40:18.901Z,12.60
2018-07-01T04:43:23.541Z,12.70
2018-07-01T04:46:28.168Z,12.90
2018-07-01T04:49:32.749Z,13.00
2018-07-01T04:52:37.554Z,13.10
2018-07-01T04:55:42.235Z,13.30
2018-07-01T04:58:47.072Z,13.40
2018-07-01T05:01:51.887Z,13.60
2018-07-01T05:04:56.474Z,13.70
2018-07-01T05:08:01.503Z,13.80
2018-07-01T05:11:06.265Z,14.10
2018-07-01T05:14:10.863Z,14.10
2018-07-01T05:17:15.870Z,14.20
2018-07-01T05:20:20.438Z,14.30
2018-07-01T05:26:29.675Z,14.50
2018-07-01T05:29:34.349Z,14.70
2018-07-01T05:32:39.155Z,14.90
2018-07-01T05:35:43.777Z,15.00
2018-07-01T05:38:48.759Z,15.20
2018-07-01T05:41:53.545Z,15.30
2018-07-01T05:44:58.392Z,15.40
2018-07-01T05:48:02.955Z,15.60
2018-07-01T05:51:07.755Z,15.80
2018-07-01T05:54:12.716Z,15.80
2018-07-01T05:57:17.475Z,16.00
2018-07-01T06:00:22.389Z,16.20
2018-07-01T06:03:28.303Z,16.40
2018-07-01T06:06:46.015Z,16.50
2018-07-01T06:09:50.928Z,16.60
2018-07-01T06:12:55.920Z,16.80
2018-07-01T06:16:06.327Z,16.90
2018-07-01T06:19:17.630Z,17.00
2018-07-01T06:22:23.071Z,17.10
2018-07-01T06:25:44.336Z,17.20
2018-07-01T06:28:55.809Z,17.40
2018-07-01T06:32:16.333Z,17.50
2018-07-01T06:37:09.811Z,17.60
2018-07-01T07:07:44.832Z,18.70
2018-07-01T07:10:49.413Z,18.90
2018-07-01T07:13:53.805Z,19.00
2018-07-01T07:16:58.201Z,19.10
2018-07-01T07:20:02.741Z,19.30
2018-07-01T07:23:07.328Z,19.30
2018-07-01T07:26:11.697Z,19.40
2018-07-01T07:29:16.072Z,19.50
2018-07-01T07:32:20.430Z,19.60
2018-07-01T07:35:24.976Z,19.70
2018-07-01T07:38:29.345Z,19.80
2018-07-01T07:44:37.894Z,19.80
2018-07-01T07:47:42.253Z,20.00
2018-07-01T07:50:46.628Z,20.10
2018-07-01T07:53:51.042Z,20.20
2018-07-01T07:56:55.459Z,20.30
2018-07-01T07:59:59.964Z,20.50
2018-07-01T08:03:04.677Z,20.60
2018-07-01T08:06:09.146Z,20.70
2018-07-01T08:09:13.789Z,20.70
2018-07-01T08:12:18.207Z,20.70
2018-07-01T08:15:22.594Z,20.80
2018-07-01T08:18:26.994Z,20.90
2018-07-01T08:21:31.971Z,21.00
2018-07-01T08:24:36.613Z,21.20
2018-07-01T08:27:40.977Z,21.30
2018-07-01T08:30:45.348Z,21.40
2018-07-01T08:33:49.708Z,21.40
2018-07-01T08:36:54.096Z,21.50
2018-07-01T08:39:58.560Z,21.60
2018-07-01T08:43:02.951Z,21.80
2018-07-01T08:46:07.345Z,22.00
2018-07-01T08:49:11.713Z,22.10
2018-07-01T08:52:16.608Z,22.20
2018-07-01T08:55:21.655Z,22.40
2018-07-01T08:58:28.340Z,22.50
2018-07-01T09:01:34.353Z,22.60
2018-07-01T09:04:39.190Z,22.70
2018-07-01T09:07:43.762Z,22.70
2018-07-01T09:10:48.721Z,22.90
2018-07-01T09:13:53.744Z,22.80
2018-07-01T09:16:59.734Z,23.00
2018-07-01T09:20:05.426Z,23.00
2018-07-01T09:23:11.486Z,23.20
2018-07-01T09:26:17.323Z,23.30
2018-07-01T09:29:23.099Z,23.30
2018-07-01T09:32:28.666Z,23.30
2018-07-01T09:35:33.167Z,23.40
2018-07-01T09:38:37.691Z,23.40
2018-07-01T09:41:42.210Z,23.50
2018-07-01T09:44:46.730Z,23.40
2018-07-01T09:47:51.249Z,23.40
2018-07-01T09:50:56.965Z,23.50
2018-07-01T09:54:01.965Z,23.30
2018-07-01T09:57:06.482Z,23.40
2018-07-01T10:00:11.001Z,23.50
2018-07-01T10:03:15.617Z,23.60
2018-07-01T10:09:24.382Z,23.70
2018-07-01T10:12:28.798Z,23.60
2018-07-01T10:15:33.228Z,23.60
2018-07-01T10:18:38.254Z,23.50
2018-07-01T10:21:42.680Z,23.70
2018-07-01T10:24:47.105Z,23.70
2018-07-01T10:27:51.529Z,23.60
2018-07-01T10:30:55.938Z,23.80
2018-07-01T10:34:00.443Z,23.80
2018-07-01T10:37:04.917Z,23.90
2018-07-01T10:40:09.399Z,24.00
2018-07-01T10:43:13.824Z,24.00
2018-07-01T10:49:22.434Z,24.30
2018-07-01T10:52:26.905Z,24.50
2018-07-01T10:55:31.338Z,24.70
2018-07-01T10:58:35.794Z,24.50
2018-07-01T11:01:40.225Z,24.30
2018-07-01T11:04:44.764Z,24.10
2018-07-01T11:07:49.224Z,24.10
2018-07-01T11:10:53.701Z,24.10
2018-07-01T11:13:58.169Z,24.20
2018-07-01T11:17:02.650Z,24.30
2018-07-01T11:20:07.277Z,24.30
2018-07-01T11:23:11.772Z,24.30
2018-07-01T11:26:16.341Z,24.30
2018-07-01T11:29:21.276Z,24.10
2018-07-01T11:32:26.193Z,24.00
2018-07-01T11:35:31.721Z,24.10
2018-07-01T11:38:37.919Z,24.30
2018-07-01T11:41:42.588Z,24.50
2018-07-01T11:44:46.981Z,24.60
2018-07-01T11:47:51.425Z,24.70
2018-07-01T11:50:55.965Z,24.60
2018-07-01T11:54:00.362Z,24.60
2018-07-01T11:57:04.949Z,24.50
2018-07-01T12:00:09.788Z,24.50
2018-07-01T12:03:14.193Z,24.40
2018-07-01T12:06:18.681Z,24.30
2018-07-01T12:09:23.141Z,24.30
2018-07-01T12:12:27.560Z,24.30
2018-07-01T12:15:31.995Z,24.30
2018-07-01T12:18:36.477Z,24.10
2018-07-01T12:21:40.934Z,24.20
2018-07-01T12:24:45.385Z,24.10
2018-07-01T12:27:49.858Z,24.10
2018-07-01T12:30:54.344Z,24.10
2018-07-01T12:37:02.873Z,24.10
2018-07-01T12:40:07.426Z,24.10
2018-07-01T12:43:11.917Z,24.10
2018-07-01T12:46:16.386Z,24.10
2018-07-01T12:49:20.865Z,24.20
2018-07-01T12:52:26.530Z,24.20
2018-07-01T12:55:32.006Z,24.10
2018-07-01T12:58:36.473Z,24.00
2018-07-01T13:01:40.918Z,23.90
2018-07-01T13:04:46.684Z,23.90
2018-07-01T13:07:52.338Z,23.70
2018-07-01T13:10:59.073Z,23.60
2018-07-01T13:14:05.474Z,23.60
2018-07-01T13:17:10.385Z,23.70
2018-07-01T13:20:14.902Z,23.70
2018-07-01T13:23:21.530Z,23.70
2018-07-01T13:26:26.153Z,23.80
2018-07-01T13:29:30.632Z,23.80
2018-07-01T13:32:35.185Z,23.80
2018-07-01T13:35:39.722Z,23.80
2018-07-01T13:38:45.369Z,23.80
2018-07-01T13:41:51.509Z,23.90
2018-07-01T13:44:58.143Z,24.00
2018-07-01T13:48:04.390Z,24.10
2018-07-01T13:51:09.510Z,24.20
2018-07-01T13:57:20.826Z,24.30
2018-07-01T14:00:29.056Z,24.40
2018-07-01T14:06:39.750Z,24.50
2018-07-01T14:09:45.050Z,24.60
2018-07-01T14:12:49.677Z,24.60
2018-07-01T14:15:57.015Z,24.70
2018-07-01T14:19:02.689Z,24.70
2018-07-01T14:22:10.915Z,24.60
2018-07-01T14:25:21.597Z,24.60
2018-07-01T14:28:31.162Z,24.90
2018-07-01T14:31:49.106Z,24.90
2018-07-01T14:34:58.777Z,24.90
2018-07-01T14:38:04.594Z,24.90
2018-07-01T14:41:09.808Z,25.10
2018-07-01T14:44:16.133Z,25.00
2018-07-01T14:47:22.213Z,25.40
2018-07-01T14:50:27.880Z,25.70
2018-07-01T14:53:34.818Z,25.80
2018-07-01T14:56:40.325Z,26.00
2018-07-01T14:59:46.558Z,26.20
2018-07-01T15:02:52.766Z,26.10
2018-07-01T15:05:57.738Z,26.20
2018-07-01T15:09:03.289Z,26.40
2018-07-01T15:12:13.270Z,26.40
2018-07-01T15:15:18.290Z,26.70
2018-07-01T15:18:23.634Z,27.00
2018-07-01T15:21:28.926Z,27.20
2018-07-01T15:24:33.952Z,27.50
2018-07-01T15:30:43.073Z,28.00
2018-07-01T15:33:47.544Z,28.20
2018-07-01T15:39:56.177Z,28.50
2018-07-01T15:43:00.605Z,28.60
2018-07-01T15:46:05.862Z,28.40
2018-07-01T15:49:10.266Z,28.50
2018-07-01T15:52:14.763Z,28.30
2018-07-01T15:55:19.273Z,28.20
2018-07-01T15:58:23.690Z,28.20
2018-07-01T16:01:28.143Z,28.20
2018-07-01T16:04:32.574Z,27.90
2018-07-01T16:07:37.130Z,27.90
2018-07-01T16:10:41.561Z,28.00
2018-07-01T16:13:45.964Z,28.00
2018-07-01T16:16:50.500Z,27.40
2018-07-01T16:19:54.942Z,26.90
2018-07-01T16:22:59.344Z,26.60
2018-07-01T16:26:09.030Z,26.40
2018-07-01T16:29:13.417Z,25.90
2018-07-01T16:32:17.823Z,25.40
2018-07-01T16:35:22.300Z,24.90
2018-07-01T16:38:26.712Z,24.50
2018-07-01T16:41:31.075Z,24.20
2018-07-01T16:44:49.596Z,23.90
2018-07-01T16:48:00.111Z,23.80
2018-07-01T16:51:06.666Z,23.60
2018-07-01T16:54:18.132Z,23.40
2018-07-01T17:01:14.329Z,23.10
2018-07-01T17:04:19.213Z,22.90
2018-07-01T17:07:23.642Z,22.90
2018-07-01T17:10:28.075Z,22.70
2018-07-01T17:13:40.537Z,22.60
2018-07-01T17:16:56.554Z,22.50
2018-07-01T17:20:01.028Z,22.50
2018-07-01T17:23:05.449Z,22.40
2018-07-01T17:26:09.908Z,22.30
2018-07-01T17:29:14.377Z,22.20
2018-07-01T17:32:23.880Z,22.20
2018-07-01T17:35:28.882Z,22.20
2018-07-01T17:38:33.329Z,22.10
2018-07-01T17:41:38.076Z,22.00
2018-07-01T17:44:42.489Z,21.90
2018-07-01T17:47:46.892Z,22.00
2018-07-01T17:50:51.297Z,22.10
2018-07-01T17:53:57.427Z,22.30
2018-07-01T17:57:01.842Z,22.30
2018-07-01T18:00:07.564Z,22.30
2018-07-01T18:03:12.009Z,22.20
2018-07-01T18:06:16.616Z,22.00
2018-07-01T18:09:21.060Z,21.90
2018-07-01T18:12:25.592Z,21.80
2018-07-01T18:15:30.265Z,21.70
2018-07-01T18:18:34.850Z,21.60
2018-07-01T18:21:41.213Z,21.50
2018-07-01T18:25:01.540Z,21.50
2018-07-01T18:27:56.131Z,21.40
2018-07-01T18:30:52.480Z,21.30
2018-07-01T18:33:56.860Z,21.20
2018-07-01T18:37:01.390Z,21.20
2018-07-01T18:40:06.085Z,21.20
2018-07-01T18:43:10.424Z,21.10
2018-07-01T18:46:14.945Z,21.10
2018-07-01T18:49:19.296Z,20.90
2018-07-01T18:52:23.673Z,20.80
2018-07-01T18:55:28.093Z,20.80
2018-07-01T18:58:32.457Z,20.70
2018-07-01T19:01:36.925Z,20.70
2018-07-01T19:04:41.268Z,20.70
2018-07-01T19:07:45.640Z,20.60
2018-07-01T19:10:50.016Z,20.60
2018-07-01T19:13:54.480Z,20.50
2018-07-01T19:16:59.044Z,20.40
2018-07-01T19:20:03.445Z,20.40
2018-07-01T19:23:07.821Z,20.40
2018-07-01T19:26:12.225Z,20.30
2018-07-01T19:29:16.583Z,20.30
2018-07-01T19:32:21.260Z,20.20
2018-07-01T19:35:25.612Z,20.20
2018-07-01T19:38:30.405Z,20.10
2018-07-01T19:41:34.808Z,20.00
2018-07-01T19:44:39.175Z,19.90
2018-07-01T19:47:43.562Z,19.80
2018-07-01T19:50:47.974Z,19.70
2018-07-01T19:53:52.350Z,19.60
2018-07-01T19:56:56.977Z,19.50
2018-07-01T20:00:01.558Z,19.40
2018-07-01T20:03:05.953Z,19.20
2018-07-01T20:06:10.406Z,19.10
2018-07-01T20:09:15.073Z,19.00
2018-07-01T20:12:19.516Z,18.80
2018-07-01T20:15:23.852Z,18.70
2018-07-01T20:18:28.779Z,18.50
2018-07-01T20:21:33.347Z,18.30
2018-07-01T20:24:37.763Z,18.20
2018-07-01T20:27:42.125Z,18.00
2018-07-01T20:30:46.517Z,17.90
2018-07-01T20:33:50.873Z,17.80
2018-07-01T20:36:55.511Z,17.70
2018-07-01T20:40:00.140Z,17.60
2018-07-01T20:43:04.551Z,17.50
2018-07-01T20:46:09.377Z,17.50
2018-07-01T20:49:13.767Z,17.30
2018-07-01T20:52:18.178Z,17.30
2018-07-01T20:55:22.573Z,17.10
2018-07-01T20:58:26.958Z,17.00
2018-07-01T21:01:31.330Z,17.00
2018-07-01T21:04:35.739Z,16.90
2018-07-01T21:07:40.096Z,16.90
2018-07-01T21:10:44.465Z,16.80
2018-07-01T21:13:48.864Z,16.70
2018-07-01T21:16:53.270Z,16.60
2018-07-01T21:19:57.626Z,16.50
2018-07-01T21:23:02.040Z,16.40
2018-07-01T21:26:07.189Z,16.30
2018-07-01T21:29:11.889Z,16.30
2018-07-01T21:32:16.259Z,16.20
2018-07-01T21:35:20.629Z,16.20
2018-07-01T21:38:25.074Z,16.10
2018-07-01T21:41:29.408Z,16.00
2018-07-01T21:44:33.846Z,15.90
2018-07-01T21:47:38.443Z,15.80
2018-07-01T21:50:42.841Z,15.70
2018-07-01T21:53:47.222Z,15.70
2018-07-01T21:56:52.350Z,15.70
2018-07-01T21:59:56.741Z,15.60
2018-07-01T22:03:02.697Z,15.60
2018-07-01T22:06:07.924Z,15.50
2018-07-01T22:09:12.269Z,15.40
2018-07-01T22:12:33.611Z,15.30
2018-07-01T22:15:54.850Z,15.30
2018-07-01T22:18:59.345Z,15.30
2018-07-01T22:22:03.900Z,15.30
2018-07-01T22:25:08.264Z,15.30
2018-07-01T22:28:12.657Z,15.20
2018-07-01T22:31:17.029Z,15.10
2018-07-01T22:34:21.835Z,15.00
2018-07-01T22:37:26.240Z,15.00
2018-07-01T22:40:30.612Z,14.90
2018-07-01T22:43:35.017Z,14.80
2018-07-01T22:46:39.537Z,14.80
2018-07-01T22:49:43.939Z,14.80
2018-07-01T22:52:48.326Z,14.70
2018-07-01T22:55:52.728Z,14.60
2018-07-01T22:58:57.113Z,14.50
2018-07-01T23:03:16.400Z,14.50
2018-07-01T23:06:20.784Z,14.40
2018-07-01T23:09:25.154Z,14.20
2018-07-01T23:12:29.532Z,14.20
2018-07-01T23:15:33.918Z,14.10
2018-07-01T23:18:38.308Z,14.10
2018-07-01T23:21:42.724Z,14.10
2018-07-01T23:24:47.117Z,14.00
2018-07-01T23:27:51.537Z,13.90
2018-07-01T23:30:55.900Z,13.90
2018-07-01T23:34:00.303Z,13.80
2018-07-01T23:37:04.768Z,13.70
2018-07-01T23:40:09.977Z,13.70
2018-07-01T23:43:14.367Z,13.70
2018-07-01T23:46:18.762Z,13.60
2018-07-01T23:49:23.168Z,13.50
2018-07-01T23:52:27.560Z,13.50
2018-07-01T23:55:31.945Z,13.40
2018-07-01T23:58:36.329Z,13.30
